sensor_id;sensor_type;location;lat;lon;timestamp;pressure;altitude;pressure_sealevel;temperature;humidity
76052;BME280;64751;48.708;9.710;2023-06-14T14:32:45;97251.97;;;24.28;31.88
76052;BME280;64751;48.708;9.710;2023-06-14T14:35:14;97258.63;;;24.41;32.24
76052;BME280;64751;48.708;9.710;2023-06-14T14:37:42;97258.03;;;24.59;33.48
76052;BME280;64751;48.708;9.710;2023-06-14T14:40:10;97265.81;;;24.71;32.71
76052;BME280;64751;48.708;9.710;2023-06-14T14:42:41;97264.00;;;24.82;32.70
76052;BME280;64751;48.708;9.710;2023-06-14T14:45:09;97264.75;;;24.79;30.57
76052;BME280;64751;48.708;9.710;2023-06-14T14:47:36;97264.69;;;24.72;31.21
76052;BME280;64751;48.708;9.710;2023-06-14T14:50:06;97270.09;;;24.72;31.95
76052;BME280;64751;48.708;9.710;2023-06-14T14:52:35;97264.63;;;24.65;29.53
76052;BME280;64751;48.708;9.710;2023-06-14T14:55:03;97259.94;;;24.55;31.41
76052;BME280;64751;48.708;9.710;2023-06-14T14:57:30;97262.50;;;24.44;31.49
76052;BME280;64751;48.708;9.710;2023-06-14T14:59:58;97269.09;;;24.46;33.19
76052;BME280;64751;48.708;9.710;2023-06-14T15:02:26;97265.78;;;24.23;31.45
76052;BME280;64751;48.708;9.710;2023-06-14T15:04:53;97266.09;;;24.11;32.04
76052;BME280;64751;48.708;9.710;2023-06-14T15:07:25;97266.47;;;24.13;30.21
76052;BME280;64751;48.708;9.710;2023-06-14T15:09:52;97264.19;;;24.15;31.20
76052;BME280;64751;48.708;9.710;2023-06-14T15:12:20;97266.81;;;24.08;29.40
76052;BME280;64751;48.708;9.710;2023-06-14T15:14:50;97271.47;;;24.11;30.37
76052;BME280;64751;48.708;9.710;2023-06-14T15:17:18;97261.34;;;24.05;29.55
76052;BME280;64751;48.708;9.710;2023-06-14T15:19:47;97268.44;;;24.16;32.19
76052;BME280;64751;48.708;9.710;2023-06-14T15:22:14;97272.66;;;24.14;30.22
76052;BME280;64751;48.708;9.710;2023-06-14T15:24:44;97264.06;;;24.05;32.11
76052;BME280;64751;48.708;9.710;2023-06-14T15:27:12;97267.25;;;24.14;32.57
76052;BME280;64751;48.708;9.710;2023-06-14T15:29:41;97267.28;;;24.17;32.06
76052;BME280;64751;48.708;9.710;2023-06-14T15:32:09;97278.13;;;24.21;33.48
76052;BME280;64751;48.708;9.710;2023-06-14T15:34:37;97269.97;;;24.14;30.56
76052;BME280;64751;48.708;9.710;2023-06-14T15:37:05;97268.31;;;24.06;31.69
76052;BME280;64751;48.708;9.710;2023-06-14T15:39:33;97267.75;;;23.90;33.23
76052;BME280;64751;48.708;9.710;2023-06-14T15:42:03;97268.03;;;23.81;30.25
76052;BME280;64751;48.708;9.710;2023-06-14T15:44:30;97269.19;;;23.80;32.24
76052;BME280;64751;48.708;9.710;2023-06-14T15:46:58;97265.78;;;23.87;34.15
76052;BME280;64751;48.708;9.710;2023-06-14T15:49:25;97275.09;;;23.93;32.70
76052;BME280;64751;48.708;9.710;2023-06-14T15:51:53;97273.59;;;23.95;31.97
76052;BME280;64751;48.708;9.710;2023-06-14T15:54:20;97264.34;;;23.96;32.52
76052;BME280;64751;48.708;9.710;2023-06-14T15:56:48;97273.66;;;24.02;34.01
76052;BME280;64751;48.708;9.710;2023-06-14T15:59:17;97264.50;;;24.07;33.47
76052;BME280;64751;48.708;9.710;2023-06-14T16:01:44;97267.56;;;24.05;31.79
76052;BME280;64751;48.708;9.710;2023-06-14T16:04:12;97268.50;;;23.87;31.78
76052;BME280;64751;48.708;9.710;2023-06-14T16:06:39;97271.44;;;23.74;33.29
76052;BME280;64751;48.708;9.710;2023-06-14T16:09:07;97265.59;;;23.69;33.33
76052;BME280;64751;48.708;9.710;2023-06-14T16:11:34;97267.94;;;23.74;33.46
76052;BME280;64751;48.708;9.710;2023-06-14T16:14:02;97270.72;;;23.81;33.50
76052;BME280;64751;48.708;9.710;2023-06-14T16:16:31;97268.09;;;23.88;35.96
76052;BME280;64751;48.708;9.710;2023-06-14T16:18:59;97270.78;;;23.85;32.71
76052;BME280;64751;48.708;9.710;2023-06-14T16:21:26;97272.22;;;23.75;31.85
76052;BME280;64751;48.708;9.710;2023-06-14T16:23:54;97270.03;;;23.54;32.28
76052;BME280;64751;48.708;9.710;2023-06-14T16:26:21;97271.78;;;23.40;34.55
76052;BME280;64751;48.708;9.710;2023-06-14T16:28:49;97276.94;;;23.26;35.60
76052;BME280;64751;48.708;9.710;2023-06-14T16:31:16;97277.63;;;23.19;35.48
76052;BME280;64751;48.708;9.710;2023-06-14T16:33:46;97278.81;;;23.22;36.61
76052;BME280;64751;48.708;9.710;2023-06-14T16:36:20;97283.84;;;23.23;36.00
76052;BME280;64751;48.708;9.710;2023-06-14T16:38:47;97276.56;;;23.27;32.79
76052;BME280;64751;48.708;9.710;2023-06-14T16:41:15;97281.75;;;23.36;33.55
76052;BME280;64751;48.708;9.710;2023-06-14T16:43:43;97283.78;;;23.46;35.18
76052;BME280;64751;48.708;9.710;2023-06-14T16:46:11;97286.19;;;23.51;34.38
76052;BME280;64751;48.708;9.710;2023-06-14T16:48:38;97290.09;;;23.57;34.63
76052;BME280;64751;48.708;9.710;2023-06-14T16:51:07;97290.16;;;23.60;33.51
76052;BME280;64751;48.708;9.710;2023-06-14T16:53:35;97283.22;;;23.63;34.66
76052;BME280;64751;48.708;9.710;2023-06-14T16:56:02;97295.59;;;23.67;35.16
76052;BME280;64751;48.708;9.710;2023-06-14T16:58:32;97302.19;;;23.70;35.95
76052;BME280;64751;48.708;9.710;2023-06-14T17:00:59;97291.38;;;23.66;32.87
76052;BME280;64751;48.708;9.710;2023-06-14T17:03:27;97292.47;;;23.62;31.79
76052;BME280;64751;48.708;9.710;2023-06-14T17:05:56;97297.75;;;23.51;34.26
76052;BME280;64751;48.708;9.710;2023-06-14T17:08:25;97298.63;;;23.33;33.16
76052;BME280;64751;48.708;9.710;2023-06-14T17:10:54;97299.59;;;23.21;34.49
76052;BME280;64751;48.708;9.710;2023-06-14T17:13:23;97305.16;;;23.05;36.37
76052;BME280;64751;48.708;9.710;2023-06-14T17:15:51;97301.91;;;22.93;36.11
76052;BME280;64751;48.708;9.710;2023-06-14T17:18:18;97310.53;;;22.79;34.75
76052;BME280;64751;48.708;9.710;2023-06-14T17:20:46;97308.97;;;22.78;34.71
76052;BME280;64751;48.708;9.710;2023-06-14T17:23:16;97310.53;;;22.79;35.68
76052;BME280;64751;48.708;9.710;2023-06-14T17:25:45;97311.34;;;22.83;35.28
76052;BME280;64751;48.708;9.710;2023-06-14T17:28:13;97318.28;;;22.84;38.27
76052;BME280;64751;48.708;9.710;2023-06-14T17:30:40;97316.75;;;22.83;36.83
76052;BME280;64751;48.708;9.710;2023-06-14T17:33:09;97318.63;;;22.79;37.10
76052;BME280;64751;48.708;9.710;2023-06-14T17:35:36;97319.69;;;22.75;36.88
76052;BME280;64751;48.708;9.710;2023-06-14T17:38:04;97325.00;;;22.71;37.35
76052;BME280;64751;48.708;9.710;2023-06-14T17:40:32;97328.03;;;22.66;36.28
76052;BME280;64751;48.708;9.710;2023-06-14T17:43:01;97325.38;;;22.51;38.02
76052;BME280;64751;48.708;9.710;2023-06-14T17:45:29;97345.25;;;22.43;38.06
76052;BME280;64751;48.708;9.710;2023-06-14T17:47:56;97342.56;;;22.43;38.65
76052;BME280;64751;48.708;9.710;2023-06-14T17:50:24;97341.34;;;22.40;37.46
76052;BME280;64751;48.708;9.710;2023-06-14T17:52:52;97342.09;;;22.37;36.70
76052;BME280;64751;48.708;9.710;2023-06-14T17:55:19;97343.59;;;22.34;37.89
76052;BME280;64751;48.708;9.710;2023-06-14T17:57:47;97343.16;;;22.32;38.29
76052;BME280;64751;48.708;9.710;2023-06-14T18:00:17;97350.03;;;22.30;39.49
76052;BME280;64751;48.708;9.710;2023-06-14T18:02:45;97352.31;;;22.28;39.72
76052;BME280;64751;48.708;9.710;2023-06-14T18:05:14;97352.16;;;22.21;39.75
76052;BME280;64751;48.708;9.710;2023-06-14T18:07:41;97356.16;;;22.08;41.06
76052;BME280;64751;48.708;9.710;2023-06-14T18:10:09;97357.41;;;21.95;39.54
76052;BME280;64751;48.708;9.710;2023-06-14T18:12:40;97364.16;;;21.85;38.87
76052;BME280;64751;48.708;9.710;2023-06-14T18:15:08;97358.22;;;21.80;39.35
76052;BME280;64751;48.708;9.710;2023-06-14T18:17:38;97356.97;;;21.74;40.28
76052;BME280;64751;48.708;9.710;2023-06-14T18:20:07;97363.31;;;21.65;40.98
76052;BME280;64751;48.708;9.710;2023-06-14T18:22:34;97364.28;;;21.57;42.10
76052;BME280;64751;48.708;9.710;2023-06-14T18:25:02;97362.66;;;21.53;42.51
76052;BME280;64751;48.708;9.710;2023-06-14T18:27:30;97366.03;;;21.50;43.06
76052;BME280;64751;48.708;9.710;2023-06-14T18:29:57;97368.22;;;21.44;42.60
76052;BME280;64751;48.708;9.710;2023-06-14T18:32:25;97367.03;;;21.42;42.21
76052;BME280;64751;48.708;9.710;2023-06-14T18:34:55;97371.19;;;21.39;42.42
76052;BME280;64751;48.708;9.710;2023-06-14T18:37:23;97380.66;;;21.33;42.24
76052;BME280;64751;48.708;9.710;2023-06-14T18:39:51;97374.75;;;21.28;43.43
76052;BME280;64751;48.708;9.710;2023-06-14T18:42:18;97377.28;;;21.21;43.78
76052;BME280;64751;48.708;9.710;2023-06-14T18:44:46;97380.56;;;21.14;43.97
76052;BME280;64751;48.708;9.710;2023-06-14T18:47:14;97379.22;;;21.05;44.17
76052;BME280;64751;48.708;9.710;2023-06-14T18:49:42;97385.16;;;20.98;44.75
76052;BME280;64751;48.708;9.710;2023-06-14T18:52:11;97381.41;;;20.87;44.39
76052;BME280;64751;48.708;9.710;2023-06-14T18:54:39;97385.06;;;20.79;44.65
76052;BME280;64751;48.708;9.710;2023-06-14T18:57:06;97387.94;;;20.70;45.05
76052;BME280;64751;48.708;9.710;2023-06-14T18:59:34;97390.34;;;20.60;45.43
76052;BME280;64751;48.708;9.710;2023-06-14T19:02:02;97384.78;;;20.53;45.42
76052;BME280;64751;48.708;9.710;2023-06-14T19:04:29;97390.66;;;20.43;45.62
76052;BME280;64751;48.708;9.710;2023-06-14T19:06:57;97394.63;;;20.33;47.52
76052;BME280;64751;48.708;9.710;2023-06-14T19:09:26;97396.22;;;20.22;48.07
76052;BME280;64751;48.708;9.710;2023-06-14T19:11:53;97395.91;;;20.11;48.02
76052;BME280;64751;48.708;9.710;2023-06-14T19:14:21;97402.88;;;20.00;47.36
76052;BME280;64751;48.708;9.710;2023-06-14T19:16:48;97407.22;;;19.93;47.82
76052;BME280;64751;48.708;9.710;2023-06-14T19:19:18;97402.34;;;19.83;48.24
76052;BME280;64751;48.708;9.710;2023-06-14T19:21:46;97404.75;;;19.72;48.13
76052;BME280;64751;48.708;9.710;2023-06-14T19:24:14;97411.34;;;19.63;49.67
76052;BME280;64751;48.708;9.710;2023-06-14T19:26:43;97411.03;;;19.52;48.52
76052;BME280;64751;48.708;9.710;2023-06-14T19:29:11;97417.25;;;19.44;47.60
76052;BME280;64751;48.708;9.710;2023-06-14T19:31:39;97422.41;;;19.37;48.48
76052;BME280;64751;48.708;9.710;2023-06-14T19:34:07;97429.06;;;19.31;48.73
76052;BME280;64751;48.708;9.710;2023-06-14T19:36:34;97428.84;;;19.24;49.60
76052;BME280;64751;48.708;9.710;2023-06-14T19:39:02;97426.41;;;19.19;49.88
76052;BME280;64751;48.708;9.710;2023-06-14T19:41:29;97434.88;;;19.09;49.61
76052;BME280;64751;48.708;9.710;2023-06-14T19:43:59;97436.22;;;19.03;52.13
76052;BME280;64751;48.708;9.710;2023-06-14T19:46:27;97438.06;;;18.90;53.63
76052;BME280;64751;48.708;9.710;2023-06-14T19:48:55;97438.38;;;18.76;53.54
76052;BME280;64751;48.708;9.710;2023-06-14T19:51:22;97444.03;;;18.63;53.83
76052;BME280;64751;48.708;9.710;2023-06-14T19:53:50;97447.56;;;18.55;54.06
76052;BME280;64751;48.708;9.710;2023-06-14T19:56:17;97452.72;;;18.39;54.00
76052;BME280;64751;48.708;9.710;2023-06-14T19:58:45;97449.78;;;18.32;54.71
76052;BME280;64751;48.708;9.710;2023-06-14T20:01:14;97459.94;;;18.27;53.06
76052;BME280;64751;48.708;9.710;2023-06-14T20:03:44;97458.53;;;18.21;53.81
76052;BME280;64751;48.708;9.710;2023-06-14T20:06:13;97463.78;;;18.17;54.51
76052;BME280;64751;48.708;9.710;2023-06-14T20:08:40;97470.44;;;18.11;54.44
76052;BME280;64751;48.708;9.710;2023-06-14T20:11:08;97471.41;;;18.06;54.43
76052;BME280;64751;48.708;9.710;2023-06-14T20:13:35;97474.38;;;18.05;54.32
76052;BME280;64751;48.708;9.710;2023-06-14T20:16:03;97473.81;;;17.99;54.69
76052;BME280;64751;48.708;9.710;2023-06-14T20:18:33;97473.53;;;17.92;54.57
76052;BME280;64751;48.708;9.710;2023-06-14T20:21:02;97479.53;;;17.89;54.28
76052;BME280;64751;48.708;9.710;2023-06-14T20:23:29;97479.53;;;17.89;54.16
76052;BME280;64751;48.708;9.710;2023-06-14T20:25:57;97480.97;;;17.87;54.42
76052;BME280;64751;48.708;9.710;2023-06-14T20:28:24;97480.03;;;17.83;54.47
76052;BME280;64751;48.708;9.710;2023-06-14T20:30:52;97475.66;;;17.78;55.12
76052;BME280;64751;48.708;9.710;2023-06-14T20:33:19;97481.69;;;17.75;54.77
76052;BME280;64751;48.708;9.710;2023-06-14T20:35:48;97476.97;;;17.72;54.41
76052;BME280;64751;48.708;9.710;2023-06-14T20:38:16;97477.34;;;17.62;56.10
76052;BME280;64751;48.708;9.710;2023-06-14T20:40:45;97472.50;;;17.56;55.63
76052;BME280;64751;48.708;9.710;2023-06-14T20:43:13;97472.72;;;17.51;55.46
76052;BME280;64751;48.708;9.710;2023-06-14T20:45:42;97476.31;;;17.46;55.36
76052;BME280;64751;48.708;9.710;2023-06-14T20:48:10;97472.41;;;17.44;55.05
76052;BME280;64751;48.708;9.710;2023-06-14T20:50:38;97482.91;;;17.40;54.40
76052;BME280;64751;48.708;9.710;2023-06-14T20:53:07;97482.78;;;17.36;54.99
76052;BME280;64751;48.708;9.710;2023-06-14T20:55:34;97484.22;;;17.34;54.73
76052;BME280;64751;48.708;9.710;2023-06-14T20:58:01;97488.31;;;17.31;56.23
76052;BME280;64751;48.708;9.710;2023-06-14T21:00:29;97492.72;;;17.27;56.40
76052;BME280;64751;48.708;9.710;2023-06-14T21:02:58;97486.13;;;17.25;56.39
76052;BME280;64751;48.708;9.710;2023-06-14T21:05:28;97484.09;;;17.22;56.41
76052;BME280;64751;48.708;9.710;2023-06-14T21:07:56;97486.63;;;17.18;55.21
76052;BME280;64751;48.708;9.710;2023-06-14T21:10:25;97487.56;;;17.22;55.52
76052;BME280;64751;48.708;9.710;2023-06-14T21:12:53;97485.50;;;17.19;55.95
76052;BME280;64751;48.708;9.710;2023-06-14T21:15:21;97490.59;;;17.12;56.79
76052;BME280;64751;48.708;9.710;2023-06-14T21:17:51;97490.28;;;17.05;56.63
76052;BME280;64751;48.708;9.710;2023-06-14T21:20:19;97484.03;;;17.01;57.54
76052;BME280;64751;48.708;9.710;2023-06-14T21:22:46;97486.19;;;16.99;56.92
76052;BME280;64751;48.708;9.710;2023-06-14T21:25:18;97484.81;;;16.93;57.36
76052;BME280;64751;48.708;9.710;2023-06-14T21:27:47;97484.50;;;16.95;56.34
76052;BME280;64751;48.708;9.710;2023-06-14T21:30:30;97481.69;;;16.91;57.34
76052;BME280;64751;48.708;9.710;2023-06-14T21:32:58;97481.22;;;16.89;57.22
76052;BME280;64751;48.708;9.710;2023-06-14T21:35:26;97486.09;;;16.87;57.45
76052;BME280;64751;48.708;9.710;2023-06-14T21:37:53;97481.09;;;16.86;57.92
76052;BME280;64751;48.708;9.710;2023-06-14T21:40:21;97473.25;;;16.81;58.26
76052;BME280;64751;48.708;9.710;2023-06-14T21:42:50;97482.19;;;16.76;57.27
76052;BME280;64751;48.708;9.710;2023-06-14T21:45:17;97478.91;;;16.71;57.63
76052;BME280;64751;48.708;9.710;2023-06-14T21:47:45;97483.44;;;16.70;57.15
76052;BME280;64751;48.708;9.710;2023-06-14T21:50:13;97484.09;;;16.67;58.13
76052;BME280;64751;48.708;9.710;2023-06-14T21:52:40;97491.16;;;16.63;58.24
76052;BME280;64751;48.708;9.710;2023-06-14T21:55:08;97494.00;;;16.58;58.42
76052;BME280;64751;48.708;9.710;2023-06-14T21:57:35;97493.06;;;16.54;58.13
76052;BME280;64751;48.708;9.710;2023-06-14T22:00:06;97490.53;;;16.49;58.70
